Haubstadt, Indiana
Current Conditions -  °F | °C
As of 4:54 PM on Thursday 27 Nov 2014 (Local Time) from KEVV Reporting Station
Overcast Overcast  
Wind Chill: 30°   Ceiling: 4100
Heat Index: 30°   Visibility: 10mi
Dew Point: 22°   Wind: 3mph
Humidity: 72%   Direction: NA
Pressure: 30.47"   Gusts: NA
Location:  38.21°N, 87.57°W
Report Text: KEVV 272254Z VRB03KT 10SM OVC041 M01/M06 A3047 RMK AO2 SLP322 T10111056
Loading
Personal Weather Stations






























Interactive Weather Map New forecast layout! Learn more

10-Day Weather Forecast

Advertisements
Track Severe Weather on mobile